createdAt,value
2019-02-26T00:00:59.621Z,89
2019-02-26T00:02:03.516Z,89
2019-02-26T00:03:05.729Z,89
2019-02-26T00:04:07.850Z,88
2019-02-26T00:05:09.956Z,88
2019-02-26T00:06:12.079Z,88
2019-02-26T00:07:29.766Z,88
2019-02-26T00:08:34.500Z,88
2019-02-26T00:09:37.038Z,88
2019-02-26T00:10:39.992Z,88
2019-02-26T00:11:42.097Z,88
2019-02-26T00:12:44.210Z,88
2019-02-26T00:13:52.315Z,88
2019-02-26T00:15:03.622Z,88
2019-02-26T00:16:18.410Z,88
2019-02-26T00:17:23.179Z,88
2019-02-26T00:18:25.289Z,88
2019-02-26T00:19:27.447Z,87
2019-02-26T00:20:41.388Z,87
2019-02-26T00:21:54.293Z,87
2019-02-26T00:23:04.571Z,87
2019-02-26T00:24:17.034Z,87
2019-02-26T00:25:21.622Z,87
2019-02-26T00:26:23.741Z,86
2019-02-26T00:27:35.300Z,86
2019-02-26T00:28:46.368Z,86
2019-02-26T00:29:55.562Z,86
2019-02-26T00:31:06.155Z,86
2019-02-26T00:32:18.369Z,85
2019-02-26T00:33:29.427Z,85
2019-02-26T00:34:41.144Z,85
2019-02-26T00:35:50.498Z,85
2019-02-26T00:36:52.619Z,86
2019-02-26T00:37:56.720Z,86
2019-02-26T00:39:07.229Z,85
2019-02-26T00:40:20.299Z,86
2019-02-26T00:41:33.552Z,85
2019-02-26T00:42:37.770Z,86
2019-02-26T00:43:39.870Z,86
2019-02-26T00:44:42.377Z,86
2019-02-26T00:45:44.477Z,86
2019-02-26T00:46:46.610Z,86
2019-02-26T00:47:48.729Z,86
2019-02-26T00:48:50.887Z,86
2019-02-26T00:49:54.405Z,86
2019-02-26T00:51:03.374Z,86
2019-02-26T00:52:15.599Z,87
2019-02-26T00:53:30.512Z,87
2019-02-26T00:54:37.314Z,87
2019-02-26T00:55:40.594Z,87
2019-02-26T00:56:42.715Z,87
2019-02-26T00:57:44.836Z,87
2019-02-26T00:58:51.084Z,87
2019-02-26T00:59:53.209Z,87
2019-02-26T01:00:55.321Z,87
2019-02-26T01:02:00.072Z,87
2019-02-26T01:03:13.540Z,87
2019-02-26T01:04:17.355Z,87
2019-02-26T01:05:19.452Z,86
2019-02-26T01:06:31.143Z,86
2019-02-26T01:07:35.507Z,87
2019-02-26T01:08:47.059Z,87
2019-02-26T01:09:59.033Z,87
2019-02-26T01:11:08.674Z,87
2019-02-26T01:12:18.686Z,88
2019-02-26T01:13:32.256Z,88
2019-02-26T01:14:34.413Z,89
2019-02-26T01:15:36.812Z,89
2019-02-26T01:16:48.447Z,89
2019-02-26T01:17:50.979Z,89
2019-02-26T01:18:54.088Z,89
2019-02-26T01:20:05.987Z,88
2019-02-26T01:21:08.097Z,89
2019-02-26T01:22:10.223Z,88
2019-02-26T01:23:12.321Z,89
2019-02-26T01:24:14.437Z,89
2019-02-26T01:25:23.467Z,89
2019-02-26T01:26:28.639Z,89
2019-02-26T01:27:31.050Z,89
2019-02-26T01:28:33.166Z,89
2019-02-26T01:29:35.290Z,89
2019-02-26T01:30:37.782Z,88
2019-02-26T01:31:39.904Z,88
2019-02-26T01:32:42.018Z,88
2019-02-26T01:33:46.227Z,88
2019-02-26T01:34:52.962Z,88
2019-02-26T01:36:03.321Z,88
2019-02-26T01:37:12.488Z,89
2019-02-26T01:38:23.742Z,90
2019-02-26T01:39:26.247Z,90
2019-02-26T01:40:28.348Z,91
2019-02-26T01:41:30.470Z,90
2019-02-26T01:42:32.877Z,91
2019-02-26T01:43:34.997Z,91
2019-02-26T01:44:44.871Z,92
2019-02-26T01:45:55.774Z,91
2019-02-26T01:47:05.100Z,91
2019-02-26T01:48:18.897Z,91
2019-02-26T01:49:28.756Z,92
2019-02-26T01:50:40.631Z,92
2019-02-26T01:51:53.847Z,92
2019-02-26T01:53:01.617Z,92
2019-02-26T01:54:12.152Z,92
2019-02-26T01:55:27.930Z,92
2019-02-26T01:56:30.317Z,93
2019-02-26T01:57:32.446Z,93
2019-02-26T01:58:34.972Z,93
2019-02-26T01:59:37.087Z,92
2019-02-26T02:00:41.922Z,92
2019-02-26T02:01:55.938Z,92
2019-02-26T02:02:58.129Z,91
2019-02-26T02:04:00.246Z,90
2019-02-26T02:05:07.980Z,89
2019-02-26T02:06:18.503Z,89
2019-02-26T02:07:30.800Z,88
2019-02-26T02:08:32.912Z,88
2019-02-26T02:09:35.316Z,88
2019-02-26T02:10:37.443Z,88
2019-02-26T02:11:41.662Z,88
2019-02-26T02:12:44.060Z,87
2019-02-26T02:13:46.471Z,87
2019-02-26T02:14:48.583Z,87
2019-02-26T02:15:50.678Z,87
2019-02-26T02:16:52.791Z,86
2019-02-26T02:18:06.104Z,87
2019-02-26T02:19:08.318Z,87
2019-02-26T02:20:22.167Z,87
2019-02-26T02:21:35.610Z,87
2019-02-26T02:22:44.738Z,87
2019-02-26T02:23:53.320Z,87
2019-02-26T02:24:56.575Z,86
2019-02-26T02:26:11.460Z,86
2019-02-26T02:27:33.125Z,86
2019-02-26T02:28:36.827Z,87
2019-02-26T02:29:53.415Z,87
2019-02-26T02:30:59.623Z,86
2019-02-26T02:32:08.288Z,86
2019-02-26T02:33:10.390Z,86
2019-02-26T02:34:12.529Z,87
2019-02-26T02:35:20.628Z,87
2019-02-26T02:36:27.325Z,87
2019-02-26T02:37:32.681Z,87
2019-02-26T02:38:38.297Z,88
2019-02-26T02:39:40.415Z,88
2019-02-26T02:40:54.962Z,87
2019-02-26T02:41:57.167Z,87
2019-02-26T02:43:17.951Z,87
2019-02-26T02:44:26.549Z,88
2019-02-26T02:45:28.663Z,88
2019-02-26T02:46:31.050Z,88
2019-02-26T02:47:39.395Z,88
2019-02-26T02:48:41.516Z,88
2019-02-26T02:49:45.662Z,88
2019-02-26T02:50:48.100Z,88
2019-02-26T02:51:50.235Z,88
2019-02-26T02:53:04.017Z,88
2019-02-26T02:54:06.496Z,89
2019-02-26T02:55:20.091Z,89
2019-02-26T02:56:22.933Z,88
2019-02-26T02:57:34.699Z,88
2019-02-26T02:58:49.416Z,88
2019-02-26T03:00:08.496Z,88
2019-02-26T03:01:16.484Z,88
2019-02-26T03:02:24.643Z,88
2019-02-26T03:03:26.744Z,88
2019-02-26T03:04:35.816Z,88
2019-02-26T03:05:46.248Z,88
2019-02-26T03:06:58.012Z,88
2019-02-26T03:08:05.358Z,89
2019-02-26T03:09:19.689Z,88
2019-02-26T03:10:37.239Z,88
2019-02-26T03:11:55.265Z,88
2019-02-26T03:13:03.877Z,88
2019-02-26T03:14:18.457Z,88
2019-02-26T03:15:35.761Z,88
2019-02-26T03:16:53.422Z,88
2019-02-26T03:17:55.709Z,89
2019-02-26T03:18:57.837Z,89
2019-02-26T03:20:10.389Z,89
2019-02-26T03:21:12.511Z,89
2019-02-26T03:22:22.317Z,89
2019-02-26T03:23:24.738Z,89
2019-02-26T03:24:36.411Z,89
2019-02-26T03:25:38.531Z,89
2019-02-26T03:26:40.628Z,89
2019-02-26T03:27:43.531Z,90
2019-02-26T03:28:54.236Z,90
2019-02-26T03:30:02.728Z,90
2019-02-26T03:31:05.735Z,90
2019-02-26T03:32:08.329Z,90
2019-02-26T03:33:11.489Z,90
2019-02-26T03:34:27.227Z,90
2019-02-26T03:35:29.689Z,90
2019-02-26T03:36:43.452Z,90
2019-02-26T03:38:03.396Z,90
2019-02-26T03:39:06.472Z,91
2019-02-26T03:40:09.416Z,91
2019-02-26T03:41:11.551Z,91
2019-02-26T03:42:21.567Z,91
2019-02-26T03:43:23.720Z,91
2019-02-26T03:44:31.503Z,91
2019-02-26T03:45:33.924Z,91
2019-02-26T03:46:36.029Z,92
2019-02-26T03:47:41.441Z,92
2019-02-26T03:48:43.575Z,92
2019-02-26T03:49:45.695Z,92
2019-02-26T03:50:47.808Z,92
2019-02-26T03:51:49.926Z,91
2019-02-26T03:52:52.039Z,91
2019-02-26T03:53:54.168Z,91
2019-02-26T03:54:56.946Z,91
2019-02-26T03:56:15.335Z,91
2019-02-26T03:57:25.858Z,91
2019-02-26T03:58:27.949Z,91
2019-02-26T03:59:30.088Z,91
2019-02-26T04:00:46.735Z,91
2019-02-26T04:01:49.327Z,91
2019-02-26T04:02:52.929Z,91
2019-02-26T04:04:07.431Z,92
2019-02-26T04:05:10.036Z,92
2019-02-26T04:06:13.104Z,92
2019-02-26T04:07:15.220Z,92
2019-02-26T04:08:30.182Z,92
2019-02-26T04:09:32.460Z,92
2019-02-26T04:10:34.595Z,92
2019-02-26T04:11:39.213Z,92
2019-02-26T04:12:58.640Z,92
2019-02-26T04:14:01.433Z,93
2019-02-26T04:15:03.858Z,93
2019-02-26T04:16:06.294Z,93
2019-02-26T04:17:09.982Z,93
2019-02-26T04:18:12.096Z,93
2019-02-26T04:19:14.217Z,93
2019-02-26T04:20:16.913Z,92
2019-02-26T04:21:22.451Z,93
2019-02-26T04:22:27.617Z,92
2019-02-26T04:23:30.054Z,92
2019-02-26T04:24:38.984Z,92
2019-02-26T04:25:41.831Z,93
2019-02-26T04:26:44.230Z,93
2019-02-26T04:27:46.364Z,93
2019-02-26T04:28:48.503Z,93
2019-02-26T04:29:50.644Z,93
2019-02-26T04:30:53.385Z,93
2019-02-26T04:31:58.531Z,93
2019-02-26T04:33:12.040Z,93
2019-02-26T04:34:16.720Z,94
2019-02-26T04:35:18.833Z,94
2019-02-26T04:36:23.127Z,94
2019-02-26T04:37:38.450Z,94
2019-02-26T04:38:40.743Z,94
2019-02-26T04:39:48.561Z,94
2019-02-26T04:40:55.347Z,94
2019-02-26T04:42:20.385Z,93
2019-02-26T04:43:22.635Z,93
2019-02-26T04:44:34.790Z,93
2019-02-26T04:45:37.201Z,94
2019-02-26T04:46:40.484Z,94
2019-02-26T04:47:42.614Z,94
2019-02-26T04:48:47.220Z,95
2019-02-26T04:49:49.340Z,95
2019-02-26T04:50:52.370Z,95
2019-02-26T04:51:54.478Z,95
2019-02-26T04:53:11.332Z,95
2019-02-26T04:54:33.584Z,95
2019-02-26T04:55:45.590Z,95
2019-02-26T04:56:51.689Z,96
2019-02-26T04:57:55.431Z,96
2019-02-26T04:58:57.563Z,96
2019-02-26T05:00:10.975Z,96
2019-02-26T05:01:19.743Z,96
2019-02-26T05:02:22.136Z,96
2019-02-26T05:03:24.537Z,96
2019-02-26T05:04:39.871Z,97
2019-02-26T05:05:44.965Z,97
2019-02-26T05:06:47.080Z,97
2019-02-26T05:07:50.943Z,97
2019-02-26T05:08:55.806Z,97
2019-02-26T05:10:07.607Z,96
2019-02-26T05:11:30.688Z,96
2019-02-26T05:12:42.295Z,97
2019-02-26T05:13:44.417Z,98
2019-02-26T05:14:46.862Z,98
2019-02-26T05:15:49.015Z,97
2019-02-26T05:16:51.126Z,98
2019-02-26T05:17:53.231Z,97
2019-02-26T05:18:59.288Z,98
2019-02-26T05:20:16.731Z,97
2019-02-26T05:21:21.710Z,97
2019-02-26T05:22:33.854Z,97
2019-02-26T05:23:35.999Z,97
2019-02-26T05:24:52.780Z,97
2019-02-26T05:26:11.543Z,97
2019-02-26T05:27:25.683Z,98
2019-02-26T05:28:40.811Z,99
2019-02-26T05:29:55.507Z,99
2019-02-26T05:30:58.029Z,99
2019-02-26T05:32:09.541Z,98
2019-02-26T05:33:11.989Z,99
2019-02-26T05:34:25.900Z,99
2019-02-26T05:35:28.845Z,99
2019-02-26T05:36:46.441Z,99
2019-02-26T05:37:48.649Z,99
2019-02-26T05:39:02.527Z,99
2019-02-26T05:40:18.906Z,99
2019-02-26T05:41:24.670Z,99
2019-02-26T05:42:27.210Z,99
2019-02-26T05:43:34.673Z,98
2019-02-26T05:44:36.805Z,98
2019-02-26T05:45:38.936Z,98
2019-02-26T05:46:41.066Z,98
2019-02-26T05:47:58.011Z,99
2019-02-26T05:49:05.539Z,99
2019-02-26T05:50:18.011Z,99
2019-02-26T05:51:21.406Z,99
2019-02-26T05:52:35.954Z,99
2019-02-26T05:53:38.378Z,99
2019-02-26T05:54:40.495Z,99
2019-02-26T05:55:56.216Z,98
2019-02-26T05:56:58.912Z,98
2019-02-26T05:58:21.374Z,98
2019-02-26T05:59:24.207Z,98
2019-02-26T06:00:34.011Z,98
2019-02-26T06:01:36.151Z,98
2019-02-26T06:02:51.290Z,98
2019-02-26T06:03:53.407Z,99
2019-02-26T06:04:56.204Z,99
2019-02-26T06:06:01.354Z,99
2019-02-26T06:07:05.625Z,99
2019-02-26T06:08:08.415Z,99
2019-02-26T06:09:10.551Z,99
2019-02-26T06:10:12.678Z,99
2019-02-26T06:11:17.702Z,100
2019-02-26T06:12:20.230Z,100
2019-02-26T06:13:22.624Z,100
2019-02-26T06:14:36.961Z,100
2019-02-26T06:15:41.412Z,100
2019-02-26T06:16:55.092Z,100
2019-02-26T06:17:58.474Z,100
2019-02-26T06:19:00.599Z,100
2019-02-26T06:20:11.897Z,100
2019-02-26T06:21:26.024Z,100
2019-02-26T06:22:34.800Z,100
2019-02-26T06:23:40.415Z,100
2019-02-26T06:24:45.564Z,100
2019-02-26T06:25:47.971Z,100
2019-02-26T06:26:50.100Z,100
2019-02-26T06:27:52.669Z,100
2019-02-26T06:28:55.475Z,100
2019-02-26T06:30:12.427Z,100
2019-02-26T06:31:25.159Z,100
2019-02-26T06:32:42.474Z,100
2019-02-26T06:33:51.045Z,100
2019-02-26T06:34:53.171Z,100
2019-02-26T06:36:06.348Z,100
2019-02-26T06:37:16.784Z,100
2019-02-26T06:38:19.171Z,100
2019-02-26T06:39:33.955Z,100
2019-02-26T06:40:51.430Z,100
2019-02-26T06:41:53.906Z,100
2019-02-26T06:42:56.013Z,100
2019-02-26T06:43:58.143Z,100
2019-02-26T06:45:00.662Z,100
2019-02-26T06:46:14.492Z,100
2019-02-26T06:47:16.615Z,100
2019-02-26T06:48:32.367Z,100
2019-02-26T06:49:34.517Z,100
2019-02-26T06:50:43.887Z,100
2019-02-26T06:51:54.474Z,100
2019-02-26T06:52:56.573Z,100
2019-02-26T06:54:02.217Z,100
2019-02-26T06:55:08.479Z,100
2019-02-26T06:56:10.600Z,100
2019-02-26T06:57:12.729Z,100
2019-02-26T06:58:14.864Z,100
2019-02-26T06:59:16.967Z,100
2019-02-26T07:00:29.641Z,100
2019-02-26T07:01:41.949Z,100
2019-02-26T07:02:47.147Z,100
2019-02-26T07:03:49.270Z,100
2019-02-26T07:04:51.655Z,100
2019-02-26T07:05:53.858Z,100
2019-02-26T07:07:06.869Z,100
2019-02-26T07:08:16.645Z,100
2019-02-26T07:09:21.422Z,100
2019-02-26T07:10:33.959Z,100
2019-02-26T07:11:39.013Z,100
2019-02-26T07:12:50.629Z,100
2019-02-26T07:13:54.681Z,100
2019-02-26T07:14:58.993Z,100
2019-02-26T07:16:06.197Z,100
2019-02-26T07:17:08.323Z,100
2019-02-26T07:18:20.585Z,100
2019-02-26T07:19:22.713Z,100
2019-02-26T07:20:49.772Z,100
2019-02-26T07:21:59.874Z,100
2019-02-26T07:23:08.129Z,100
2019-02-26T07:24:27.398Z,100
2019-02-26T07:25:33.605Z,100
2019-02-26T07:26:48.872Z,100
2019-02-26T07:28:02.844Z,100
2019-02-26T07:29:17.701Z,100
2019-02-26T07:30:20.120Z,100
2019-02-26T07:31:28.580Z,100
2019-02-26T07:32:48.211Z,100
2019-02-26T07:34:01.103Z,100
2019-02-26T07:35:17.252Z,100
2019-02-26T07:36:28.458Z,99
2019-02-26T07:37:40.585Z,99
2019-02-26T07:38:56.583Z,99
2019-02-26T07:39:59.021Z,98
2019-02-26T07:41:06.747Z,98
2019-02-26T07:42:19.134Z,98
2019-02-26T07:43:23.488Z,97
2019-02-26T07:44:29.201Z,97
2019-02-26T07:45:33.154Z,98
2019-02-26T07:46:45.022Z,97
2019-02-26T07:47:58.318Z,97
2019-02-26T07:49:08.126Z,96
2019-02-26T07:50:17.824Z,96
2019-02-26T07:51:20.237Z,96
2019-02-26T07:52:33.215Z,96
2019-02-26T07:53:35.727Z,96
2019-02-26T07:54:49.358Z,95
2019-02-26T07:55:53.809Z,95
2019-02-26T07:57:03.358Z,95
2019-02-26T07:58:15.995Z,95
2019-02-26T07:59:39.694Z,95
2019-02-26T08:00:52.938Z,94
2019-02-26T08:01:55.452Z,94
2019-02-26T08:03:05.020Z,94
2019-02-26T08:04:18.346Z,94
2019-02-26T08:05:29.308Z,94
2019-02-26T08:06:38.840Z,95
2019-02-26T08:07:40.937Z,94
2019-02-26T08:08:49.377Z,94
2019-02-26T08:09:51.492Z,94
2019-02-26T08:10:54.141Z,93
2019-02-26T08:11:56.980Z,92
2019-02-26T08:13:08.193Z,92
2019-02-26T08:14:10.295Z,92
2019-02-26T08:15:16.298Z,91
2019-02-26T08:16:29.958Z,91
2019-02-26T08:17:32.243Z,90
2019-02-26T08:18:34.389Z,90
2019-02-26T08:19:49.531Z,90
2019-02-26T08:21:05.023Z,88
2019-02-26T08:22:07.234Z,88
2019-02-26T08:23:09.360Z,88
2019-02-26T08:24:24.489Z,88
2019-02-26T08:25:27.104Z,88
2019-02-26T08:26:30.079Z,88
2019-02-26T08:27:38.365Z,88
2019-02-26T08:28:48.597Z,87
2019-02-26T08:30:01.289Z,87
2019-02-26T08:31:06.093Z,86
2019-02-26T08:32:08.287Z,87
2019-02-26T08:33:10.450Z,87
2019-02-26T08:34:16.491Z,87
2019-02-26T08:35:19.799Z,87
2019-02-26T08:36:21.929Z,86
2019-02-26T08:37:24.052Z,86
2019-02-26T08:38:31.310Z,84
2019-02-26T08:39:38.702Z,83
2019-02-26T08:40:41.152Z,83
2019-02-26T08:41:43.306Z,83
2019-02-26T08:42:45.417Z,84
2019-02-26T08:43:58.819Z,83
2019-02-26T08:45:01.149Z,83
2019-02-26T08:46:03.568Z,83
2019-02-26T08:47:21.027Z,84
2019-02-26T08:48:27.936Z,83
2019-02-26T08:49:30.328Z,83
2019-02-26T08:50:44.492Z,81
2019-02-26T08:51:48.382Z,81
2019-02-26T08:52:59.039Z,81
2019-02-26T08:54:01.202Z,81
2019-02-26T08:55:03.752Z,80
2019-02-26T08:56:05.882Z,80
2019-02-26T08:57:12.705Z,79
2019-02-26T08:58:14.838Z,77
2019-02-26T08:59:20.809Z,77
2019-02-26T09:00:22.933Z,78
2019-02-26T09:01:25.066Z,79
2019-02-26T09:02:27.458Z,79
2019-02-26T09:03:29.602Z,79
2019-02-26T09:04:31.726Z,79
2019-02-26T09:05:37.517Z,78
2019-02-26T09:06:39.631Z,76
2019-02-26T09:07:51.361Z,76
2019-02-26T09:08:59.628Z,76
2019-02-26T09:10:17.738Z,77
2019-02-26T09:11:36.428Z,76
2019-02-26T09:12:52.235Z,76
2019-02-26T09:14:09.021Z,75
2019-02-26T09:15:18.778Z,75
2019-02-26T09:16:32.773Z,76
2019-02-26T09:17:42.389Z,75
2019-02-26T09:18:44.804Z,75
2019-02-26T09:19:46.921Z,74
2019-02-26T09:20:49.051Z,74
2019-02-26T09:21:55.389Z,74
2019-02-26T09:23:02.170Z,73
2019-02-26T09:24:08.505Z,75
2019-02-26T09:25:11.253Z,76
2019-02-26T09:26:13.401Z,75
2019-02-26T09:27:15.546Z,76
2019-02-26T09:28:17.669Z,73
2019-02-26T09:29:23.188Z,73
2019-02-26T09:30:25.605Z,73
2019-02-26T09:31:33.461Z,72
2019-02-26T09:32:45.092Z,72
2019-02-26T09:33:47.526Z,70
2019-02-26T09:34:49.634Z,70
2019-02-26T09:35:57.673Z,70
2019-02-26T09:37:08.353Z,70
2019-02-26T09:38:17.530Z,70
2019-02-26T09:39:39.046Z,71
2019-02-26T09:40:41.259Z,69
2019-02-26T09:41:46.411Z,70
2019-02-26T09:43:00.433Z,70
2019-02-26T09:44:12.129Z,67
2019-02-26T09:45:29.474Z,67
2019-02-26T09:46:43.977Z,67
2019-02-26T09:47:58.379Z,67
2019-02-26T09:49:13.004Z,68
2019-02-26T09:50:23.108Z,68
2019-02-26T09:51:25.796Z,70
2019-02-26T09:52:33.414Z,70
2019-02-26T09:53:35.575Z,70
2019-02-26T09:54:50.964Z,69
2019-02-26T09:55:57.144Z,70
2019-02-26T09:56:59.293Z,69
2019-02-26T09:58:03.504Z,69
2019-02-26T09:59:14.933Z,68
2019-02-26T10:00:29.858Z,67
2019-02-26T10:01:42.878Z,68
2019-02-26T10:02:52.365Z,67
2019-02-26T10:04:05.352Z,67
2019-02-26T10:05:18.328Z,67
2019-02-26T10:06:24.300Z,66
2019-02-26T10:07:38.626Z,66
2019-02-26T10:08:40.816Z,67
2019-02-26T10:09:49.134Z,66
2019-02-26T10:11:02.644Z,66
2019-02-26T10:12:16.184Z,65
2019-02-26T10:13:28.055Z,67
2019-02-26T10:14:38.776Z,66
2019-02-26T10:15:45.490Z,64
2019-02-26T10:16:57.153Z,65
2019-02-26T10:18:09.742Z,65
2019-02-26T10:19:20.294Z,65
2019-02-26T10:20:32.288Z,66
2019-02-26T10:21:44.900Z,64
2019-02-26T10:22:47.056Z,64
2019-02-26T10:24:01.775Z,63
2019-02-26T10:25:06.620Z,63
2019-02-26T10:26:11.906Z,63
2019-02-26T10:27:17.405Z,64
2019-02-26T10:28:23.060Z,64
2019-02-26T10:29:25.195Z,64
2019-02-26T10:30:41.665Z,62
2019-02-26T10:31:44.004Z,61
2019-02-26T10:32:47.790Z,63
2019-02-26T10:33:51.719Z,64
2019-02-26T10:34:54.166Z,63
2019-02-26T10:35:56.288Z,64
2019-02-26T10:36:58.717Z,64
2019-02-26T10:38:12.460Z,63
2019-02-26T10:39:28.162Z,62
2019-02-26T10:41:01.644Z,63
2019-02-26T10:42:03.969Z,62
2019-02-26T10:43:06.099Z,62
2019-02-26T10:44:08.515Z,66
2019-02-26T10:45:11.254Z,65
2019-02-26T10:46:13.769Z,65
2019-02-26T10:47:15.908Z,65
2019-02-26T10:48:28.462Z,66
2019-02-26T10:49:30.884Z,66
2019-02-26T10:50:33.178Z,66
2019-02-26T10:51:35.631Z,64
2019-02-26T10:52:37.764Z,63
2019-02-26T10:53:40.616Z,63
2019-02-26T10:54:47.560Z,62
2019-02-26T10:55:49.712Z,63
2019-02-26T10:56:52.829Z,62
2019-02-26T10:58:13.094Z,62
2019-02-26T10:59:20.742Z,61
2019-02-26T11:00:38.515Z,61
2019-02-26T11:01:41.352Z,61
2019-02-26T11:02:54.418Z,61
2019-02-26T11:03:57.579Z,61
2019-02-26T11:05:00.295Z,61
2019-02-26T11:06:14.410Z,60
2019-02-26T11:07:21.566Z,61
2019-02-26T11:08:35.712Z,62
2019-02-26T11:09:38.150Z,61
2019-02-26T11:10:52.562Z,62
2019-02-26T11:12:08.551Z,61
2019-02-26T11:13:25.541Z,62
2019-02-26T11:14:30.807Z,62
2019-02-26T11:15:40.808Z,63
2019-02-26T11:16:42.955Z,62
2019-02-26T11:17:55.824Z,64
2019-02-26T11:19:09.325Z,62
2019-02-26T11:20:15.087Z,64
2019-02-26T11:21:17.224Z,63
2019-02-26T11:22:28.298Z,64
2019-02-26T11:23:41.522Z,62
2019-02-26T11:24:58.526Z,62
2019-02-26T11:26:18.058Z,60
2019-02-26T11:27:20.908Z,61
2019-02-26T11:28:37.834Z,61
2019-02-26T11:29:47.865Z,62
2019-02-26T11:30:57.147Z,63
2019-02-26T11:32:04.228Z,63
2019-02-26T11:33:16.362Z,63
2019-02-26T11:34:18.824Z,63
2019-02-26T11:35:28.023Z,63
2019-02-26T11:36:41.236Z,64
2019-02-26T11:37:54.778Z,64
2019-02-26T11:39:12.253Z,64
2019-02-26T11:40:14.660Z,64
2019-02-26T11:41:28.736Z,65
2019-02-26T11:42:37.517Z,64
2019-02-26T11:43:42.090Z,65
2019-02-26T11:44:44.284Z,65
2019-02-26T11:45:46.416Z,64
2019-02-26T11:46:57.123Z,65
2019-02-26T11:48:09.211Z,66
2019-02-26T11:49:21.779Z,65
2019-02-26T11:50:29.126Z,65
2019-02-26T11:51:43.012Z,65
2019-02-26T11:52:45.142Z,65
2019-02-26T11:53:47.280Z,64
2019-02-26T11:54:49.412Z,64
2019-02-26T11:56:02.014Z,64
2019-02-26T11:57:17.761Z,64
2019-02-26T11:58:27.346Z,62
2019-02-26T11:59:38.114Z,63
2019-02-26T12:00:51.885Z,63
2019-02-26T12:02:03.984Z,64
2019-02-26T12:03:08.447Z,65
2019-02-26T12:04:17.773Z,63
2019-02-26T12:05:20.194Z,63
2019-02-26T12:06:22.307Z,63
2019-02-26T12:07:35.005Z,63
2019-02-26T12:08:49.909Z,63
2019-02-26T12:09:52.175Z,62
2019-02-26T12:13:02.732Z,63
2019-02-26T12:14:04.878Z,62
2019-02-26T12:15:15.460Z,62
2019-02-26T12:16:17.871Z,62
2019-02-26T12:17:20.326Z,63
2019-02-26T12:18:23.380Z,62
2019-02-26T12:19:37.126Z,61
2019-02-26T12:20:49.228Z,61
2019-02-26T12:22:05.976Z,61
2019-02-26T12:26:30.578Z,61
2019-02-26T12:27:32.720Z,61
2019-02-26T12:28:41.040Z,62
2019-02-26T12:29:54.789Z,61
2019-02-26T12:31:09.983Z,61
2019-02-26T12:32:16.956Z,62
2019-02-26T12:33:26.368Z,61
2019-02-26T12:34:28.896Z,61
2019-02-26T12:35:43.479Z,60
2019-02-26T12:36:59.621Z,60
2019-02-26T12:38:22.130Z,60
2019-02-26T12:39:31.920Z,60
2019-02-26T12:40:34.047Z,59
2019-02-26T12:41:48.565Z,58
2019-02-26T12:42:50.711Z,58
2019-02-26T12:43:52.884Z,58
2019-02-26T12:45:13.561Z,58
2019-02-26T12:46:15.823Z,56
2019-02-26T12:47:28.409Z,55
2019-02-26T12:48:30.526Z,55
2019-02-26T12:49:45.367Z,54
2019-02-26T12:50:47.491Z,54
2019-02-26T12:52:03.639Z,52
2019-02-26T12:53:08.716Z,52
2019-02-26T12:56:14.007Z,53
2019-02-26T12:57:31.590Z,53
2019-02-26T12:58:33.824Z,52
2019-02-26T12:59:35.953Z,52
2019-02-26T13:00:43.395Z,52
2019-02-26T13:01:52.429Z,54
2019-02-26T13:02:54.961Z,55
2019-02-26T13:03:57.084Z,54
2019-02-26T13:04:59.237Z,53
2019-02-26T13:06:01.656Z,53
2019-02-26T13:07:11.748Z,53
2019-02-26T13:08:24.668Z,52
2019-02-26T13:09:27.766Z,51
2019-02-26T13:10:30.192Z,51
2019-02-26T13:11:32.603Z,52
2019-02-26T13:12:34.752Z,51
2019-02-26T13:13:36.956Z,51
2019-02-26T13:14:39.100Z,51
2019-02-26T13:15:41.629Z,51
2019-02-26T13:16:59.986Z,51
2019-02-26T13:18:02.734Z,52
2019-02-26T13:19:05.834Z,52
2019-02-26T13:20:12.050Z,51
2019-02-26T13:21:18.334Z,50
2019-02-26T13:22:21.209Z,50
2019-02-26T13:23:23.333Z,50
2019-02-26T13:26:27.131Z,50
2019-02-26T13:27:30.226Z,49
2019-02-26T13:28:32.430Z,51
2019-02-26T13:29:34.959Z,50
2019-02-26T13:30:37.397Z,50
2019-02-26T13:32:00.501Z,51
2019-02-26T13:33:12.233Z,50
2019-02-26T13:34:15.786Z,50
2019-02-26T13:35:18.065Z,49
2019-02-26T13:36:21.090Z,49
2019-02-26T13:37:42.502Z,49
2019-02-26T13:38:50.033Z,49
2019-02-26T13:39:52.173Z,50
2019-02-26T13:41:39.281Z,50
2019-02-26T13:42:41.931Z,51
2019-02-26T13:43:44.704Z,51
2019-02-26T13:44:46.863Z,50
2019-02-26T13:45:49.272Z,50
2019-02-26T13:46:51.421Z,50
2019-02-26T13:48:02.594Z,50
2019-02-26T13:49:04.729Z,50
2019-02-26T13:50:06.863Z,50
2019-02-26T13:51:08.998Z,50
2019-02-26T13:52:11.122Z,50
2019-02-26T13:53:13.258Z,50
2019-02-26T13:54:15.408Z,50
2019-02-26T13:55:18.624Z,50
2019-02-26T13:56:20.789Z,50
2019-02-26T13:57:23.348Z,50
2019-02-26T13:58:25.788Z,51
2019-02-26T13:59:28.080Z,51
2019-02-26T14:00:30.254Z,50
2019-02-26T14:01:32.406Z,50
2019-02-26T14:02:34.573Z,50
2019-02-26T14:03:36.718Z,50
2019-02-26T14:04:38.887Z,50
2019-02-26T14:05:41.032Z,51
2019-02-26T14:06:43.207Z,51
2019-02-26T14:07:45.925Z,52
2019-02-26T14:08:48.059Z,51
2019-02-26T14:09:50.801Z,51
2019-02-26T14:10:53.387Z,52
2019-02-26T14:11:56.923Z,53
2019-02-26T14:12:59.094Z,54
2019-02-26T14:14:01.280Z,53
2019-02-26T14:15:04.702Z,51
2019-02-26T14:16:06.847Z,51
2019-02-26T14:17:08.987Z,52
2019-02-26T14:18:11.163Z,51
2019-02-26T14:19:13.308Z,51
2019-02-26T14:20:15.464Z,51
2019-02-26T14:21:18.296Z,53
2019-02-26T14:22:20.450Z,52
2019-02-26T14:23:23.265Z,52
2019-02-26T14:24:25.813Z,52
2019-02-26T14:25:27.962Z,52
2019-02-26T14:26:30.882Z,52
2019-02-26T14:27:33.049Z,52
2019-02-26T14:28:35.207Z,51
2019-02-26T14:29:37.388Z,51
2019-02-26T14:30:39.559Z,52
2019-02-26T14:31:41.989Z,52
2019-02-26T14:32:44.138Z,52
2019-02-26T14:33:46.603Z,52
2019-02-26T14:34:48.739Z,53
2019-02-26T14:35:51.284Z,52
2019-02-26T14:36:55.816Z,52
2019-02-26T14:37:58.304Z,53
2019-02-26T14:39:01.043Z,52
2019-02-26T14:40:03.417Z,52
2019-02-26T14:41:06.205Z,52
2019-02-26T14:42:08.354Z,52
2019-02-26T14:43:10.801Z,52
2019-02-26T14:44:12.951Z,52
2019-02-26T14:45:15.423Z,52
2019-02-26T14:46:17.564Z,53
2019-02-26T14:47:19.736Z,53
2019-02-26T14:48:21.897Z,53
2019-02-26T14:49:24.058Z,55
2019-02-26T14:50:27.336Z,54
2019-02-26T14:51:29.492Z,54
2019-02-26T14:52:32.200Z,54
2019-02-26T14:53:34.666Z,55
2019-02-26T14:54:37.948Z,54
2019-02-26T14:55:40.384Z,54
2019-02-26T14:56:42.518Z,55
2019-02-26T14:57:44.673Z,53
2019-02-26T14:58:46.811Z,53
2019-02-26T14:59:48.959Z,54
2019-02-26T15:01:01.279Z,54
2019-02-26T15:02:03.478Z,54
2019-02-26T15:03:05.616Z,54
2019-02-26T15:04:07.807Z,53
2019-02-26T15:05:09.951Z,54
2019-02-26T15:06:12.101Z,54
2019-02-26T15:07:14.269Z,54
2019-02-26T15:08:16.693Z,54
2019-02-26T15:09:19.698Z,54
2019-02-26T15:10:22.533Z,54
2019-02-26T15:11:24.687Z,54
2019-02-26T15:12:26.834Z,54
2019-02-26T15:13:29.011Z,55
2019-02-26T15:14:32.571Z,55
2019-02-26T15:15:36.348Z,54
2019-02-26T15:16:39.827Z,54
2019-02-26T15:17:42.389Z,54
2019-02-26T15:18:44.552Z,54
2019-02-26T15:19:54.021Z,54
2019-02-26T15:20:56.194Z,54
2019-02-26T15:21:58.337Z,54
2019-02-26T15:23:01.183Z,55
2019-02-26T15:24:03.394Z,54
2019-02-26T15:25:07.981Z,54
2019-02-26T15:26:10.783Z,54
2019-02-26T15:27:13.647Z,54
2019-02-26T15:28:15.785Z,54
2019-02-26T15:29:17.947Z,54
2019-02-26T15:30:20.111Z,54
2019-02-26T15:31:22.267Z,55
2019-02-26T15:32:24.701Z,55
2019-02-26T15:33:26.849Z,55
2019-02-26T15:34:29.002Z,55
2019-02-26T15:35:31.153Z,55
2019-02-26T15:36:33.571Z,56
2019-02-26T15:37:35.761Z,56
2019-02-26T15:38:38.188Z,56
2019-02-26T15:39:40.461Z,56
2019-02-26T15:40:43.281Z,56
2019-02-26T15:41:45.406Z,56
2019-02-26T15:42:57.009Z,56
2019-02-26T15:43:59.161Z,56
2019-02-26T15:45:01.756Z,56
2019-02-26T15:46:04.175Z,56
2019-02-26T15:47:06.348Z,56
2019-02-26T15:48:08.512Z,56
2019-02-26T15:49:10.660Z,56
2019-02-26T15:50:12.833Z,56
2019-02-26T15:51:21.302Z,56
2019-02-26T15:52:23.725Z,57
2019-02-26T15:53:25.861Z,57
2019-02-26T15:54:28.576Z,57
2019-02-26T15:55:31.130Z,57
2019-02-26T15:56:33.434Z,57
2019-02-26T15:57:36.329Z,58
2019-02-26T15:58:39.138Z,58